createdAt,value
2023-08-07T00:03:26.118Z,32.50
2023-08-07T00:08:33.056Z,34.33
2023-08-07T00:13:40.089Z,36.50
2023-08-07T00:18:44.945Z,36.67
2023-08-07T00:23:50.114Z,37.50
2023-08-07T00:28:54.987Z,37.00
2023-08-07T00:34:01.500Z,35.50
2023-08-07T00:39:07.289Z,36.00
2023-08-07T00:44:17.486Z,38.75
2023-08-07T00:49:23.126Z,41.00
2023-08-07T00:54:28.990Z,37.00
2023-08-07T00:59:34.026Z,38.33
2023-08-07T01:04:39.772Z,28.00
2023-08-07T01:09:45.125Z,36.67
2023-08-07T01:15:05.243Z,32.67
2023-08-07T01:20:11.002Z,31.75
2023-08-07T01:25:16.218Z,34.50
2023-08-07T01:40:49.179Z,34.33
2023-08-07T01:45:54.049Z,37.33
2023-08-07T01:50:59.059Z,40.50
2023-08-07T01:56:04.192Z,42.00
2023-08-07T02:01:09.921Z,41.00
2023-08-07T02:06:14.942Z,34.67
2023-08-07T02:16:24.317Z,41.00
2023-08-07T02:21:29.332Z,37.50
2023-08-07T02:26:34.380Z,44.75
2023-08-07T02:31:39.577Z,35.00
2023-08-07T02:36:44.784Z,35.33
2023-08-07T02:41:51.319Z,35.00
2023-08-07T02:46:56.473Z,34.33
2023-08-07T02:52:01.705Z,33.00
2023-08-07T02:57:07.174Z,39.75
2023-08-07T03:02:12.052Z,36.25
2023-08-07T03:07:17.958Z,37.00
2023-08-07T03:12:22.725Z,41.33
2023-08-07T03:17:27.768Z,35.50
2023-08-07T03:22:32.874Z,29.00
2023-08-07T03:27:38.319Z,41.00
2023-08-07T03:32:44.364Z,36.67
2023-08-07T03:37:50.710Z,39.00
2023-08-07T03:42:55.645Z,37.67
2023-08-07T03:48:01.419Z,36.75
2023-08-07T03:53:09.546Z,34.00
2023-08-07T03:58:20.298Z,36.00
2023-08-07T04:08:29.812Z,34.75
2023-08-07T04:13:35.119Z,41.00
2023-08-07T04:23:45.273Z,38.00
2023-08-07T04:28:51.266Z,42.00
2023-08-07T04:33:57.197Z,39.00
2023-08-07T04:39:02.227Z,33.50
2023-08-07T04:44:08.609Z,35.33
2023-08-07T04:49:13.495Z,38.00
2023-08-07T04:54:19.835Z,42.33
2023-08-07T04:59:26.117Z,35.50
2023-08-07T05:04:32.259Z,33.33
2023-08-07T05:09:37.242Z,39.00
2023-08-07T05:14:43.213Z,38.00
2023-08-07T05:19:48.069Z,37.00
2023-08-07T05:24:53.051Z,39.33
2023-08-07T05:29:58.101Z,39.25
2023-08-07T05:35:04.045Z,34.00
2023-08-07T05:40:10.051Z,35.25
2023-08-07T05:45:15.156Z,37.33
2023-08-07T05:50:22.380Z,45.33
2023-08-07T05:55:27.749Z,39.75
2023-08-07T06:00:33.760Z,41.25
2023-08-07T06:05:38.949Z,40.67
2023-08-07T06:10:43.890Z,42.00
2023-08-07T06:15:48.986Z,36.67
2023-08-07T06:20:54.059Z,39.00
2023-08-07T06:25:59.975Z,38.00
2023-08-07T06:36:11.625Z,42.75
2023-08-07T06:41:16.402Z,42.00
2023-08-07T06:46:27.776Z,37.00
2023-08-07T06:51:32.911Z,41.00
2023-08-07T06:56:39.892Z,46.75
2023-08-07T07:01:44.722Z,40.50
2023-08-07T07:06:50.424Z,44.67
2023-08-07T07:11:56.015Z,40.00
2023-08-07T07:17:01.754Z,41.00
2023-08-07T07:22:07.181Z,29.25
2023-08-07T07:27:12.453Z,38.50
2023-08-07T07:32:17.471Z,38.50
2023-08-07T07:42:27.967Z,36.67
2023-08-07T07:47:32.953Z,42.00
2023-08-07T07:52:38.195Z,45.00
2023-08-07T07:57:43.384Z,41.25
2023-08-07T08:02:48.830Z,41.67
2023-08-07T08:07:54.347Z,40.00
2023-08-07T08:13:00.399Z,49.67
2023-08-07T08:18:05.440Z,36.25
2023-08-07T08:23:11.202Z,31.00
2023-08-07T08:28:16.342Z,35.75
2023-08-07T08:33:21.407Z,42.00
2023-08-07T08:38:27.728Z,42.00
2023-08-07T08:43:38.479Z,38.75
2023-08-07T08:48:47.027Z,41.50
2023-08-07T08:53:53.543Z,42.25
2023-08-07T09:04:07.332Z,42.75
2023-08-07T09:09:15.453Z,39.33
2023-08-07T09:14:25.283Z,35.00
2023-08-07T09:19:30.414Z,37.50
2023-08-07T09:24:35.348Z,36.50
2023-08-07T09:29:44.338Z,34.25
2023-08-07T09:34:50.087Z,34.50
2023-08-07T09:39:55.605Z,41.25
2023-08-07T09:45:01.382Z,37.25
2023-08-07T09:50:06.885Z,33.33
2023-08-07T09:55:11.820Z,36.33
2023-08-07T10:00:17.830Z,41.50
2023-08-07T10:05:23.030Z,40.00
2023-08-07T10:10:29.997Z,37.75
2023-08-07T10:15:37.175Z,37.00
2023-08-07T10:20:44.761Z,37.25
2023-08-07T10:25:53.565Z,37.67
2023-08-07T10:31:00.160Z,40.25
2023-08-07T10:36:12.668Z,45.75
2023-08-07T10:41:18.140Z,34.50
2023-08-07T10:46:25.488Z,37.75
2023-08-07T10:51:34.241Z,45.50
2023-08-07T10:56:39.827Z,37.50
2023-08-07T11:01:46.793Z,37.50
2023-08-07T11:06:51.879Z,43.00
2023-08-07T11:11:57.139Z,37.00
2023-08-07T11:17:02.072Z,41.00
2023-08-07T11:22:07.651Z,36.33
2023-08-07T11:27:12.618Z,37.00
2023-08-07T11:32:18.829Z,42.50
2023-08-07T11:37:23.544Z,42.50
2023-08-07T11:42:31.589Z,41.00
2023-08-07T11:47:36.761Z,42.67
2023-08-07T11:52:42.464Z,43.67
2023-08-07T11:57:50.176Z,38.00
2023-08-07T12:02:54.986Z,46.67
2023-08-07T12:08:00.174Z,43.25
2023-08-07T12:13:07.169Z,41.75
2023-08-07T12:18:13.319Z,42.33
2023-08-07T12:23:19.593Z,45.00
2023-08-07T12:28:25.094Z,40.50
2023-08-07T12:33:32.302Z,42.00
2023-08-07T12:38:37.405Z,45.00
2023-08-07T12:43:42.509Z,45.00
2023-08-07T12:48:47.609Z,47.00
2023-08-07T12:58:58.526Z,48.00
2023-08-07T13:09:08.263Z,47.50
2023-08-07T13:14:13.441Z,49.75
2023-08-07T13:19:18.655Z,49.25
2023-08-07T13:24:23.446Z,48.00
2023-08-07T13:29:31.889Z,47.00
2023-08-07T13:34:37.078Z,45.50
2023-08-07T13:39:43.065Z,44.00
2023-08-07T13:44:48.822Z,45.00
2023-08-07T13:49:54.169Z,46.33
2023-08-07T13:54:59.140Z,43.00
2023-08-07T14:00:04.864Z,40.75
2023-08-07T14:10:17.230Z,42.75
2023-08-07T14:15:22.961Z,43.00
2023-08-07T14:20:29.215Z,47.75
2023-08-07T14:25:34.039Z,48.00
2023-08-07T14:30:39.178Z,47.25
2023-08-07T14:35:45.877Z,46.75
2023-08-07T14:40:53.912Z,45.75
2023-08-07T14:45:59.128Z,45.00
2023-08-07T14:51:05.744Z,45.67
2023-08-07T14:56:11.214Z,49.33
2023-08-07T15:01:16.436Z,48.00
2023-08-07T15:06:21.458Z,45.25
2023-08-07T15:11:31.366Z,45.00
2023-08-07T15:16:38.378Z,43.00
2023-08-07T15:21:44.662Z,47.50
2023-08-07T15:26:49.688Z,47.00
2023-08-07T15:31:54.846Z,45.00
2023-08-07T15:37:02.019Z,44.25
2023-08-07T15:42:07.832Z,45.67
2023-08-07T15:47:13.314Z,49.25
2023-08-07T15:52:20.490Z,46.67
2023-08-07T15:57:26.778Z,44.67
2023-08-07T16:02:32.103Z,44.33
2023-08-07T16:07:38.586Z,44.33
2023-08-07T16:12:44.671Z,45.00
2023-08-07T16:17:50.013Z,45.00
2023-08-07T16:22:56.289Z,42.00
2023-08-07T16:28:01.241Z,45.00
2023-08-07T16:33:06.556Z,47.50
2023-08-07T16:38:11.758Z,45.75
2023-08-07T16:43:16.720Z,45.00
2023-08-07T16:48:21.557Z,47.25
2023-08-07T16:53:26.639Z,48.33
2023-08-07T16:58:32.455Z,49.25
2023-08-07T17:03:37.641Z,47.67
2023-08-07T17:08:43.123Z,48.25
2023-08-07T17:13:48.308Z,50.00
2023-08-07T17:18:53.893Z,41.00
2023-08-07T17:23:59.025Z,45.00
2023-08-07T17:29:04.046Z,49.67
2023-08-07T17:34:09.017Z,45.00
2023-08-07T17:39:13.767Z,45.67
2023-08-07T17:44:20.071Z,46.50
2023-08-07T17:49:25.160Z,48.00
2023-08-07T17:54:30.027Z,46.00
2023-08-07T18:04:40.091Z,45.67
2023-08-07T18:09:45.056Z,48.00
2023-08-07T18:14:51.969Z,50.00
2023-08-07T18:19:57.170Z,47.50
2023-08-07T18:25:01.961Z,45.75
2023-08-07T18:30:09.223Z,49.25
2023-08-07T18:35:14.217Z,48.50
2023-08-07T18:40:19.331Z,50.00
2023-08-07T18:45:24.189Z,45.50
2023-08-07T18:50:29.145Z,48.33
2023-08-07T18:55:35.579Z,48.75
2023-08-07T19:00:40.548Z,49.50
2023-08-07T19:05:47.240Z,50.00
2023-08-07T19:10:52.495Z,49.75
2023-08-07T19:15:58.889Z,50.00
2023-08-07T19:21:04.181Z,50.00
2023-08-07T19:26:09.041Z,49.75
2023-08-07T19:31:14.933Z,50.00
2023-08-07T19:36:19.904Z,47.50
2023-08-07T19:41:24.658Z,48.50
2023-08-07T19:46:29.772Z,48.67
2023-08-07T19:51:35.429Z,48.33
2023-08-07T19:56:40.482Z,46.33
2023-08-07T20:01:45.175Z,47.75
2023-08-07T20:06:51.206Z,48.00
2023-08-07T20:11:56.720Z,47.25
2023-08-07T20:17:02.113Z,48.67
2023-08-07T20:22:08.773Z,48.25
2023-08-07T20:27:13.730Z,44.67
2023-08-07T20:32:19.072Z,47.00
2023-08-07T20:37:27.099Z,47.50
2023-08-07T20:42:32.276Z,48.00
2023-08-07T20:47:38.464Z,50.00
2023-08-07T20:52:43.756Z,48.25
2023-08-07T20:57:48.584Z,47.25
2023-08-07T21:02:53.389Z,48.00
2023-08-07T21:07:58.575Z,48.25
2023-08-07T21:13:03.446Z,49.33
2023-08-07T21:18:08.732Z,46.75
2023-08-07T21:23:17.900Z,50.00
2023-08-07T21:28:23.415Z,47.00
2023-08-07T21:33:28.894Z,47.33
2023-08-07T21:43:39.086Z,47.00
2023-08-07T21:48:44.121Z,50.00
2023-08-07T21:53:50.615Z,49.67
2023-08-07T21:58:56.129Z,46.75
2023-08-07T22:04:01.058Z,49.75
2023-08-07T22:09:07.071Z,48.33
2023-08-07T22:14:12.164Z,47.00
2023-08-07T22:19:17.284Z,47.25
2023-08-07T22:24:22.714Z,50.00
2023-08-07T22:29:27.538Z,48.67
2023-08-07T22:34:32.278Z,47.50
2023-08-07T22:39:37.219Z,45.67
2023-08-07T22:44:42.073Z,48.50
2023-08-07T22:49:47.142Z,48.67
2023-08-07T22:54:52.080Z,50.00
2023-08-07T22:59:58.161Z,50.00
2023-08-07T23:05:03.235Z,48.00
2023-08-07T23:10:09.392Z,49.00
2023-08-07T23:15:14.654Z,46.50
2023-08-07T23:20:20.227Z,45.67
2023-08-07T23:25:25.196Z,48.00
2023-08-07T23:30:32.145Z,49.25
2023-08-07T23:35:37.203Z,49.50
2023-08-07T23:40:43.898Z,50.00
2023-08-07T23:45:48.762Z,50.00
2023-08-07T23:50:55.057Z,50.00
2023-08-07T23:56:02.052Z,49.25
